sensor_id;sensor_type;location;lat;lon;timestamp;P1;durP1;ratioP1;P2;durP2;ratioP2
42586;SDS011;28216;53.362;-6.288;2022-07-24T00:00:53;10.68;;;5.57;;
42586;SDS011;28216;53.362;-6.288;2022-07-24T00:03:20;10.65;;;5.68;;
42586;SDS011;28216;53.362;-6.288;2022-07-24T00:05:45;7.90;;;5.32;;
42586;SDS011;28216;53.362;-6.288;2022-07-24T00:08:11;8.07;;;5.70;;
42586;SDS011;28216;53.362;-6.288;2022-07-24T00:10:36;9.93;;;5.43;;
42586;SDS011;28216;53.362;-6.288;2022-07-24T00:13:02;9.27;;;5.60;;
42586;SDS011;28216;53.362;-6.288;2022-07-24T00:15:28;8.23;;;5.97;;
42586;SDS011;28216;53.362;-6.288;2022-07-24T00:17:54;9.88;;;6.07;;
42586;SDS011;28216;53.362;-6.288;2022-07-24T00:20:19;8.88;;;5.38;;
42586;SDS011;28216;53.362;-6.288;2022-07-24T00:22:46;10.10;;;5.43;;
42586;SDS011;28216;53.362;-6.288;2022-07-24T00:25:12;10.38;;;5.68;;
42586;SDS011;28216;53.362;-6.288;2022-07-24T00:27:37;8.68;;;5.55;;
42586;SDS011;28216;53.362;-6.288;2022-07-24T00:30:03;10.20;;;5.47;;
42586;SDS011;28216;53.362;-6.288;2022-07-24T00:32:28;8.80;;;5.40;;
42586;SDS011;28216;53.362;-6.288;2022-07-24T00:34:54;11.55;;;6.03;;
42586;SDS011;28216;53.362;-6.288;2022-07-24T00:37:19;8.43;;;5.47;;
42586;SDS011;28216;53.362;-6.288;2022-07-24T00:39:45;8.70;;;5.57;;
42586;SDS011;28216;53.362;-6.288;2022-07-24T00:42:12;9.68;;;5.57;;
42586;SDS011;28216;53.362;-6.288;2022-07-24T00:44:38;11.23;;;5.95;;
42586;SDS011;28216;53.362;-6.288;2022-07-24T00:47:03;8.18;;;5.07;;
42586;SDS011;28216;53.362;-6.288;2022-07-24T00:49:29;8.48;;;5.32;;
42586;SDS011;28216;53.362;-6.288;2022-07-24T00:51:54;10.10;;;5.65;;
42586;SDS011;28216;53.362;-6.288;2022-07-24T00:54:20;14.40;;;5.65;;
42586;SDS011;28216;53.362;-6.288;2022-07-24T00:56:48;13.50;;;5.55;;
42586;SDS011;28216;53.362;-6.288;2022-07-24T00:59:16;7.55;;;5.13;;
42586;SDS011;28216;53.362;-6.288;2022-07-24T01:01:43;9.30;;;5.70;;
42586;SDS011;28216;53.362;-6.288;2022-07-24T01:04:09;10.82;;;5.43;;
42586;SDS011;28216;53.362;-6.288;2022-07-24T01:06:35;7.13;;;5.05;;
42586;SDS011;28216;53.362;-6.288;2022-07-24T01:09:01;8.25;;;5.05;;
42586;SDS011;28216;53.362;-6.288;2022-07-24T01:11:27;9.20;;;5.15;;
42586;SDS011;28216;53.362;-6.288;2022-07-24T01:13:53;9.18;;;5.05;;
42586;SDS011;28216;53.362;-6.288;2022-07-24T01:16:19;7.95;;;5.07;;
42586;SDS011;28216;53.362;-6.288;2022-07-24T01:18:44;6.65;;;4.78;;
42586;SDS011;28216;53.362;-6.288;2022-07-24T01:21:10;7.95;;;5.07;;
42586;SDS011;28216;53.362;-6.288;2022-07-24T01:23:36;6.82;;;4.65;;
42586;SDS011;28216;53.362;-6.288;2022-07-24T01:26:02;9.13;;;4.70;;
42586;SDS011;28216;53.362;-6.288;2022-07-24T01:28:28;8.80;;;4.70;;
42586;SDS011;28216;53.362;-6.288;2022-07-24T01:30:53;7.70;;;4.60;;
42586;SDS011;28216;53.362;-6.288;2022-07-24T01:33:19;8.38;;;4.63;;
42586;SDS011;28216;53.362;-6.288;2022-07-24T01:35:44;9.32;;;4.15;;
42586;SDS011;28216;53.362;-6.288;2022-07-24T01:38:10;6.70;;;3.85;;
42586;SDS011;28216;53.362;-6.288;2022-07-24T01:40:38;5.85;;;3.92;;
42586;SDS011;28216;53.362;-6.288;2022-07-24T01:43:04;6.97;;;3.85;;
42586;SDS011;28216;53.362;-6.288;2022-07-24T01:45:30;7.35;;;3.97;;
42586;SDS011;28216;53.362;-6.288;2022-07-24T01:47:56;6.32;;;3.95;;
42586;SDS011;28216;53.362;-6.288;2022-07-24T01:50:21;6.50;;;3.88;;
42586;SDS011;28216;53.362;-6.288;2022-07-24T01:52:47;7.15;;;3.70;;
42586;SDS011;28216;53.362;-6.288;2022-07-24T01:55:13;8.20;;;3.97;;
42586;SDS011;28216;53.362;-6.288;2022-07-24T01:57:38;5.38;;;4.13;;
42586;SDS011;28216;53.362;-6.288;2022-07-24T02:00:05;8.38;;;3.97;;
42586;SDS011;28216;53.362;-6.288;2022-07-24T02:02:34;5.50;;;3.63;;
42586;SDS011;28216;53.362;-6.288;2022-07-24T02:04:59;6.53;;;3.92;;
42586;SDS011;28216;53.362;-6.288;2022-07-24T02:07:25;6.63;;;4.00;;
42586;SDS011;28216;53.362;-6.288;2022-07-24T02:09:50;8.15;;;4.28;;
42586;SDS011;28216;53.362;-6.288;2022-07-24T02:12:15;5.50;;;3.92;;
42586;SDS011;28216;53.362;-6.288;2022-07-24T02:14:41;6.82;;;3.92;;
42586;SDS011;28216;53.362;-6.288;2022-07-24T02:17:06;6.60;;;4.40;;
42586;SDS011;28216;53.362;-6.288;2022-07-24T02:19:32;5.85;;;4.30;;
42586;SDS011;28216;53.362;-6.288;2022-07-24T02:21:57;7.18;;;4.15;;
42586;SDS011;28216;53.362;-6.288;2022-07-24T02:24:23;9.30;;;3.75;;
42586;SDS011;28216;53.362;-6.288;2022-07-24T02:26:48;7.50;;;3.97;;
42586;SDS011;28216;53.362;-6.288;2022-07-24T02:29:14;4.93;;;3.88;;
42586;SDS011;28216;53.362;-6.288;2022-07-24T02:31:40;5.22;;;3.42;;
42586;SDS011;28216;53.362;-6.288;2022-07-24T02:34:06;6.53;;;3.55;;
42586;SDS011;28216;53.362;-6.288;2022-07-24T02:36:31;7.13;;;3.80;;
42586;SDS011;28216;53.362;-6.288;2022-07-24T02:38:56;6.30;;;3.72;;
42586;SDS011;28216;53.362;-6.288;2022-07-24T02:41:22;6.25;;;3.55;;
42586;SDS011;28216;53.362;-6.288;2022-07-24T02:43:47;7.32;;;3.95;;
42586;SDS011;28216;53.362;-6.288;2022-07-24T02:46:13;6.13;;;3.83;;
42586;SDS011;28216;53.362;-6.288;2022-07-24T02:48:38;6.47;;;3.88;;
42586;SDS011;28216;53.362;-6.288;2022-07-24T02:51:04;4.20;;;3.80;;
42586;SDS011;28216;53.362;-6.288;2022-07-24T02:53:30;8.27;;;4.30;;
42586;SDS011;28216;53.362;-6.288;2022-07-24T02:55:55;8.68;;;4.38;;
42586;SDS011;28216;53.362;-6.288;2022-07-24T02:58:21;6.13;;;3.80;;
42586;SDS011;28216;53.362;-6.288;2022-07-24T03:00:46;9.20;;;3.95;;
42586;SDS011;28216;53.362;-6.288;2022-07-24T03:03:12;5.88;;;3.78;;
42586;SDS011;28216;53.362;-6.288;2022-07-24T03:05:37;5.90;;;3.80;;
42586;SDS011;28216;53.362;-6.288;2022-07-24T03:08:03;4.38;;;3.47;;
42586;SDS011;28216;53.362;-6.288;2022-07-24T03:10:28;5.82;;;3.53;;
42586;SDS011;28216;53.362;-6.288;2022-07-24T03:12:54;4.15;;;2.88;;
42586;SDS011;28216;53.362;-6.288;2022-07-24T03:15:20;5.35;;;2.97;;
42586;SDS011;28216;53.362;-6.288;2022-07-24T03:17:49;5.20;;;3.20;;
42586;SDS011;28216;53.362;-6.288;2022-07-24T03:20:16;5.05;;;2.60;;
42586;SDS011;28216;53.362;-6.288;2022-07-24T03:22:42;4.82;;;2.70;;
42586;SDS011;28216;53.362;-6.288;2022-07-24T03:25:09;4.45;;;2.60;;
42586;SDS011;28216;53.362;-6.288;2022-07-24T03:27:34;4.35;;;2.40;;
42586;SDS011;28216;53.362;-6.288;2022-07-24T03:29:59;4.35;;;2.60;;
42586;SDS011;28216;53.362;-6.288;2022-07-24T03:32:25;6.47;;;2.90;;
42586;SDS011;28216;53.362;-6.288;2022-07-24T03:34:50;4.80;;;2.97;;
42586;SDS011;28216;53.362;-6.288;2022-07-24T03:37:16;3.58;;;2.50;;
42586;SDS011;28216;53.362;-6.288;2022-07-24T03:39:41;5.53;;;2.95;;
42586;SDS011;28216;53.362;-6.288;2022-07-24T03:42:07;4.63;;;2.92;;
42586;SDS011;28216;53.362;-6.288;2022-07-24T03:44:32;5.85;;;2.83;;
42586;SDS011;28216;53.362;-6.288;2022-07-24T03:46:58;5.60;;;3.30;;
42586;SDS011;28216;53.362;-6.288;2022-07-24T03:49:23;7.22;;;3.25;;
42586;SDS011;28216;53.362;-6.288;2022-07-24T03:51:49;9.57;;;3.67;;
42586;SDS011;28216;53.362;-6.288;2022-07-24T03:54:14;7.07;;;3.53;;
42586;SDS011;28216;53.362;-6.288;2022-07-24T03:56:39;7.75;;;3.67;;
42586;SDS011;28216;53.362;-6.288;2022-07-24T03:59:05;7.10;;;3.58;;
42586;SDS011;28216;53.362;-6.288;2022-07-24T04:01:30;10.25;;;3.83;;
42586;SDS011;28216;53.362;-6.288;2022-07-24T04:03:56;11.27;;;3.95;;
42586;SDS011;28216;53.362;-6.288;2022-07-24T04:06:23;10.77;;;4.07;;
42586;SDS011;28216;53.362;-6.288;2022-07-24T04:08:48;8.02;;;4.05;;
42586;SDS011;28216;53.362;-6.288;2022-07-24T04:11:14;8.65;;;4.32;;
42586;SDS011;28216;53.362;-6.288;2022-07-24T04:13:39;10.75;;;4.30;;
42586;SDS011;28216;53.362;-6.288;2022-07-24T04:16:05;12.40;;;4.88;;
42586;SDS011;28216;53.362;-6.288;2022-07-24T04:18:30;11.43;;;4.80;;
42586;SDS011;28216;53.362;-6.288;2022-07-24T04:20:56;10.27;;;4.70;;
42586;SDS011;28216;53.362;-6.288;2022-07-24T04:23:21;9.93;;;4.20;;
42586;SDS011;28216;53.362;-6.288;2022-07-24T04:25:46;11.77;;;4.35;;
42586;SDS011;28216;53.362;-6.288;2022-07-24T04:28:12;11.73;;;4.63;;
42586;SDS011;28216;53.362;-6.288;2022-07-24T04:30:38;10.25;;;4.25;;
42586;SDS011;28216;53.362;-6.288;2022-07-24T04:33:03;9.98;;;4.45;;
42586;SDS011;28216;53.362;-6.288;2022-07-24T04:35:29;11.10;;;4.75;;
42586;SDS011;28216;53.362;-6.288;2022-07-24T04:37:54;10.60;;;4.57;;
42586;SDS011;28216;53.362;-6.288;2022-07-24T04:40:20;11.35;;;4.50;;
42586;SDS011;28216;53.362;-6.288;2022-07-24T04:42:45;8.02;;;4.25;;
42586;SDS011;28216;53.362;-6.288;2022-07-24T04:45:11;10.93;;;4.38;;
42586;SDS011;28216;53.362;-6.288;2022-07-24T04:47:37;8.52;;;3.95;;
42586;SDS011;28216;53.362;-6.288;2022-07-24T04:50:04;10.20;;;3.97;;
42586;SDS011;28216;53.362;-6.288;2022-07-24T04:52:30;7.22;;;4.35;;
42586;SDS011;28216;53.362;-6.288;2022-07-24T04:54:56;12.63;;;4.28;;
42586;SDS011;28216;53.362;-6.288;2022-07-24T04:57:21;10.15;;;4.47;;
42586;SDS011;28216;53.362;-6.288;2022-07-24T04:59:47;9.38;;;4.32;;
42586;SDS011;28216;53.362;-6.288;2022-07-24T05:02:12;9.88;;;4.45;;
42586;SDS011;28216;53.362;-6.288;2022-07-24T05:04:38;11.70;;;4.22;;
42586;SDS011;28216;53.362;-6.288;2022-07-24T05:07:03;9.13;;;3.72;;
42586;SDS011;28216;53.362;-6.288;2022-07-24T05:09:29;10.85;;;4.22;;
42586;SDS011;28216;53.362;-6.288;2022-07-24T05:11:55;10.63;;;4.03;;
42586;SDS011;28216;53.362;-6.288;2022-07-24T05:14:20;11.95;;;3.88;;
42586;SDS011;28216;53.362;-6.288;2022-07-24T05:16:46;11.88;;;4.10;;
42586;SDS011;28216;53.362;-6.288;2022-07-24T05:19:12;12.50;;;4.10;;
42586;SDS011;28216;53.362;-6.288;2022-07-24T05:21:38;8.25;;;3.60;;
42586;SDS011;28216;53.362;-6.288;2022-07-24T05:24:03;8.13;;;4.13;;
42586;SDS011;28216;53.362;-6.288;2022-07-24T05:26:29;8.90;;;3.80;;
42586;SDS011;28216;53.362;-6.288;2022-07-24T05:28:59;10.63;;;4.07;;
42586;SDS011;28216;53.362;-6.288;2022-07-24T05:31:26;11.07;;;3.67;;
42586;SDS011;28216;53.362;-6.288;2022-07-24T05:33:52;14.05;;;4.20;;
42586;SDS011;28216;53.362;-6.288;2022-07-24T05:36:18;12.50;;;4.32;;
42586;SDS011;28216;53.362;-6.288;2022-07-24T05:38:44;9.98;;;3.72;;
42586;SDS011;28216;53.362;-6.288;2022-07-24T05:41:10;9.85;;;3.90;;
42586;SDS011;28216;53.362;-6.288;2022-07-24T05:43:36;9.70;;;3.67;;
42586;SDS011;28216;53.362;-6.288;2022-07-24T05:46:02;13.93;;;3.75;;
42586;SDS011;28216;53.362;-6.288;2022-07-24T05:48:28;10.73;;;3.55;;
42586;SDS011;28216;53.362;-6.288;2022-07-24T05:50:54;13.23;;;3.65;;
42586;SDS011;28216;53.362;-6.288;2022-07-24T05:53:20;10.40;;;4.13;;
42586;SDS011;28216;53.362;-6.288;2022-07-24T05:55:45;12.43;;;3.45;;
42586;SDS011;28216;53.362;-6.288;2022-07-24T05:58:11;10.15;;;3.63;;
42586;SDS011;28216;53.362;-6.288;2022-07-24T06:00:36;10.05;;;4.05;;
42586;SDS011;28216;53.362;-6.288;2022-07-24T06:03:02;10.98;;;3.25;;
42586;SDS011;28216;53.362;-6.288;2022-07-24T06:05:27;8.65;;;3.80;;
42586;SDS011;28216;53.362;-6.288;2022-07-24T06:07:53;12.15;;;3.88;;
42586;SDS011;28216;53.362;-6.288;2022-07-24T06:10:18;9.75;;;3.63;;
42586;SDS011;28216;53.362;-6.288;2022-07-24T06:12:43;8.43;;;3.28;;
42586;SDS011;28216;53.362;-6.288;2022-07-24T06:15:09;8.93;;;3.13;;
42586;SDS011;28216;53.362;-6.288;2022-07-24T06:17:35;7.78;;;3.08;;
42586;SDS011;28216;53.362;-6.288;2022-07-24T06:20:00;9.13;;;3.75;;
42586;SDS011;28216;53.362;-6.288;2022-07-24T06:22:25;8.98;;;3.30;;
42586;SDS011;28216;53.362;-6.288;2022-07-24T06:24:51;8.68;;;3.70;;
42586;SDS011;28216;53.362;-6.288;2022-07-24T06:27:16;11.57;;;3.90;;
42586;SDS011;28216;53.362;-6.288;2022-07-24T06:29:42;7.95;;;3.20;;
42586;SDS011;28216;53.362;-6.288;2022-07-24T06:32:07;9.05;;;3.28;;
42586;SDS011;28216;53.362;-6.288;2022-07-24T06:34:33;10.95;;;3.67;;
42586;SDS011;28216;53.362;-6.288;2022-07-24T06:36:58;9.27;;;3.38;;
42586;SDS011;28216;53.362;-6.288;2022-07-24T06:39:24;9.70;;;3.75;;
42586;SDS011;28216;53.362;-6.288;2022-07-24T06:41:49;10.15;;;3.22;;
42586;SDS011;28216;53.362;-6.288;2022-07-24T06:44:14;6.15;;;3.33;;
42586;SDS011;28216;53.362;-6.288;2022-07-24T06:46:40;7.63;;;3.30;;
42586;SDS011;28216;53.362;-6.288;2022-07-24T06:49:05;7.30;;;3.08;;
42586;SDS011;28216;53.362;-6.288;2022-07-24T06:51:31;9.88;;;3.35;;
42586;SDS011;28216;53.362;-6.288;2022-07-24T06:53:56;7.50;;;3.17;;
42586;SDS011;28216;53.362;-6.288;2022-07-24T06:56:22;6.00;;;3.00;;
42586;SDS011;28216;53.362;-6.288;2022-07-24T06:58:47;6.75;;;3.00;;
42586;SDS011;28216;53.362;-6.288;2022-07-24T07:01:13;5.60;;;2.88;;
42586;SDS011;28216;53.362;-6.288;2022-07-24T07:03:38;9.68;;;3.38;;
42586;SDS011;28216;53.362;-6.288;2022-07-24T07:06:04;9.35;;;3.75;;
42586;SDS011;28216;53.362;-6.288;2022-07-24T07:08:29;7.30;;;3.30;;
42586;SDS011;28216;53.362;-6.288;2022-07-24T07:10:55;6.63;;;3.05;;
42586;SDS011;28216;53.362;-6.288;2022-07-24T07:13:20;5.78;;;3.05;;
42586;SDS011;28216;53.362;-6.288;2022-07-24T07:15:46;8.20;;;3.40;;
42586;SDS011;28216;53.362;-6.288;2022-07-24T07:18:11;6.05;;;3.08;;
42586;SDS011;28216;53.362;-6.288;2022-07-24T07:20:37;6.80;;;3.20;;
42586;SDS011;28216;53.362;-6.288;2022-07-24T07:23:02;8.27;;;3.20;;
42586;SDS011;28216;53.362;-6.288;2022-07-24T07:25:28;6.38;;;3.17;;
42586;SDS011;28216;53.362;-6.288;2022-07-24T07:27:53;5.45;;;3.00;;
42586;SDS011;28216;53.362;-6.288;2022-07-24T07:30:18;4.82;;;3.00;;
42586;SDS011;28216;53.362;-6.288;2022-07-24T07:32:44;5.57;;;3.00;;
42586;SDS011;28216;53.362;-6.288;2022-07-24T07:35:09;5.45;;;3.00;;
42586;SDS011;28216;53.362;-6.288;2022-07-24T07:37:35;6.43;;;3.00;;
42586;SDS011;28216;53.362;-6.288;2022-07-24T07:40:00;8.27;;;3.10;;
42586;SDS011;28216;53.362;-6.288;2022-07-24T07:42:26;6.53;;;2.90;;
42586;SDS011;28216;53.362;-6.288;2022-07-24T07:44:52;6.18;;;2.92;;
42586;SDS011;28216;53.362;-6.288;2022-07-24T07:47:17;6.57;;;2.90;;
42586;SDS011;28216;53.362;-6.288;2022-07-24T07:49:43;5.45;;;2.88;;
42586;SDS011;28216;53.362;-6.288;2022-07-24T07:52:08;6.68;;;2.85;;
42586;SDS011;28216;53.362;-6.288;2022-07-24T07:54:34;5.43;;;2.75;;
42586;SDS011;28216;53.362;-6.288;2022-07-24T07:56:59;6.07;;;3.22;;
42586;SDS011;28216;53.362;-6.288;2022-07-24T07:59:25;5.38;;;2.83;;
42586;SDS011;28216;53.362;-6.288;2022-07-24T08:01:51;5.53;;;3.10;;
42586;SDS011;28216;53.362;-6.288;2022-07-24T08:04:16;6.25;;;2.83;;
42586;SDS011;28216;53.362;-6.288;2022-07-24T08:06:42;5.53;;;3.08;;
42586;SDS011;28216;53.362;-6.288;2022-07-24T08:09:07;5.70;;;3.10;;
42586;SDS011;28216;53.362;-6.288;2022-07-24T08:11:33;7.95;;;3.22;;
42586;SDS011;28216;53.362;-6.288;2022-07-24T08:13:58;5.32;;;3.08;;
42586;SDS011;28216;53.362;-6.288;2022-07-24T08:16:24;5.07;;;2.95;;
42586;SDS011;28216;53.362;-6.288;2022-07-24T08:18:50;6.20;;;3.05;;
42586;SDS011;28216;53.362;-6.288;2022-07-24T08:21:15;5.72;;;3.17;;
42586;SDS011;28216;53.362;-6.288;2022-07-24T08:23:43;5.18;;;2.88;;
42586;SDS011;28216;53.362;-6.288;2022-07-24T08:26:10;7.05;;;3.50;;
42586;SDS011;28216;53.362;-6.288;2022-07-24T08:28:36;5.15;;;3.00;;
42586;SDS011;28216;53.362;-6.288;2022-07-24T08:31:02;7.22;;;3.22;;
42586;SDS011;28216;53.362;-6.288;2022-07-24T08:33:27;5.20;;;3.20;;
42586;SDS011;28216;53.362;-6.288;2022-07-24T08:35:53;9.60;;;2.90;;
42586;SDS011;28216;53.362;-6.288;2022-07-24T08:38:18;4.25;;;3.00;;
42586;SDS011;28216;53.362;-6.288;2022-07-24T08:40:44;7.57;;;3.30;;
42586;SDS011;28216;53.362;-6.288;2022-07-24T08:43:10;7.03;;;3.30;;
42586;SDS011;28216;53.362;-6.288;2022-07-24T08:45:37;7.25;;;3.05;;
42586;SDS011;28216;53.362;-6.288;2022-07-24T08:48:05;4.05;;;2.75;;
42586;SDS011;28216;53.362;-6.288;2022-07-24T08:50:33;5.97;;;3.08;;
42586;SDS011;28216;53.362;-6.288;2022-07-24T08:52:59;4.05;;;2.92;;
42586;SDS011;28216;53.362;-6.288;2022-07-24T08:55:28;6.25;;;3.08;;
42586;SDS011;28216;53.362;-6.288;2022-07-24T08:57:57;8.55;;;3.53;;
42586;SDS011;28216;53.362;-6.288;2022-07-24T09:00:26;5.05;;;3.00;;
42586;SDS011;28216;53.362;-6.288;2022-07-24T09:02:53;6.63;;;3.08;;
42586;SDS011;28216;53.362;-6.288;2022-07-24T09:05:18;7.85;;;3.28;;
42586;SDS011;28216;53.362;-6.288;2022-07-24T09:07:44;8.00;;;3.42;;
42586;SDS011;28216;53.362;-6.288;2022-07-24T09:10:11;4.18;;;2.78;;
42586;SDS011;28216;53.362;-6.288;2022-07-24T09:12:40;6.95;;;3.50;;
42586;SDS011;28216;53.362;-6.288;2022-07-24T09:17:58;6.35;;;3.28;;
42586;SDS011;28216;53.362;-6.288;2022-07-24T09:20:24;5.95;;;3.50;;
42586;SDS011;28216;53.362;-6.288;2022-07-24T09:22:57;5.00;;;3.20;;
42586;SDS011;28216;53.362;-6.288;2022-07-24T09:25:24;5.97;;;3.42;;
42586;SDS011;28216;53.362;-6.288;2022-07-24T09:27:53;5.95;;;3.40;;
42586;SDS011;28216;53.362;-6.288;2022-07-24T09:30:27;7.28;;;3.20;;
42586;SDS011;28216;53.362;-6.288;2022-07-24T09:33:01;6.20;;;3.42;;
42586;SDS011;28216;53.362;-6.288;2022-07-24T09:35:38;5.30;;;3.33;;
42586;SDS011;28216;53.362;-6.288;2022-07-24T09:38:09;5.60;;;3.17;;
42586;SDS011;28216;53.362;-6.288;2022-07-24T09:40:36;5.72;;;3.28;;
42586;SDS011;28216;53.362;-6.288;2022-07-24T09:43:16;7.78;;;3.72;;
42586;SDS011;28216;53.362;-6.288;2022-07-24T09:48:18;6.82;;;3.28;;
42586;SDS011;28216;53.362;-6.288;2022-07-24T09:50:49;5.50;;;3.55;;
42586;SDS011;28216;53.362;-6.288;2022-07-24T09:53:19;8.52;;;3.78;;
42586;SDS011;28216;53.362;-6.288;2022-07-24T09:55:56;6.63;;;3.72;;
42586;SDS011;28216;53.362;-6.288;2022-07-24T09:58:47;7.82;;;3.35;;
42586;SDS011;28216;53.362;-6.288;2022-07-24T10:01:15;6.32;;;3.50;;
42586;SDS011;28216;53.362;-6.288;2022-07-24T10:03:43;6.45;;;3.30;;
42586;SDS011;28216;53.362;-6.288;2022-07-24T10:06:11;5.63;;;3.38;;
42586;SDS011;28216;53.362;-6.288;2022-07-24T10:08:39;7.35;;;3.47;;
42586;SDS011;28216;53.362;-6.288;2022-07-24T10:11:07;4.22;;;3.03;;
42586;SDS011;28216;53.362;-6.288;2022-07-24T10:13:33;5.20;;;3.60;;
42586;SDS011;28216;53.362;-6.288;2022-07-24T10:29:15;3.97;;;3.15;;
42586;SDS011;28216;53.362;-6.288;2022-07-24T10:31:43;4.80;;;3.10;;
42586;SDS011;28216;53.362;-6.288;2022-07-24T10:37:48;5.68;;;2.92;;
42586;SDS011;28216;53.362;-6.288;2022-07-24T10:40:20;4.25;;;3.05;;
42586;SDS011;28216;53.362;-6.288;2022-07-24T10:43:08;7.10;;;3.03;;
42586;SDS011;28216;53.362;-6.288;2022-07-24T10:45:35;5.72;;;3.00;;
42586;SDS011;28216;53.362;-6.288;2022-07-24T10:53:24;3.33;;;2.80;;
42586;SDS011;28216;53.362;-6.288;2022-07-24T10:55:51;3.75;;;2.63;;
42586;SDS011;28216;53.362;-6.288;2022-07-24T10:58:20;3.97;;;2.75;;
42586;SDS011;28216;53.362;-6.288;2022-07-24T11:00:47;3.55;;;2.40;;
42586;SDS011;28216;53.362;-6.288;2022-07-24T11:03:24;2.70;;;2.10;;
42586;SDS011;28216;53.362;-6.288;2022-07-24T11:06:10;3.53;;;2.15;;
42586;SDS011;28216;53.362;-6.288;2022-07-24T11:08:41;4.97;;;2.50;;
42586;SDS011;28216;53.362;-6.288;2022-07-24T11:11:20;3.17;;;2.38;;
42586;SDS011;28216;53.362;-6.288;2022-07-24T11:21:31;4.47;;;2.00;;
42586;SDS011;28216;53.362;-6.288;2022-07-24T11:26:46;2.10;;;1.90;;
42586;SDS011;28216;53.362;-6.288;2022-07-24T11:29:19;3.30;;;2.05;;
42586;SDS011;28216;53.362;-6.288;2022-07-24T11:31:47;2.53;;;1.90;;
42586;SDS011;28216;53.362;-6.288;2022-07-24T11:34:19;2.38;;;1.90;;
42586;SDS011;28216;53.362;-6.288;2022-07-24T11:36:46;3.10;;;1.98;;
42586;SDS011;28216;53.362;-6.288;2022-07-24T11:39:19;3.20;;;2.10;;
42586;SDS011;28216;53.362;-6.288;2022-07-24T11:41:55;5.13;;;2.00;;
42586;SDS011;28216;53.362;-6.288;2022-07-24T11:44:32;3.83;;;2.20;;
42586;SDS011;28216;53.362;-6.288;2022-07-24T11:47:06;2.75;;;2.10;;
42586;SDS011;28216;53.362;-6.288;2022-07-24T11:49:38;3.13;;;2.20;;
42586;SDS011;28216;53.362;-6.288;2022-07-24T11:52:04;2.72;;;2.00;;
42586;SDS011;28216;53.362;-6.288;2022-07-24T11:54:30;2.90;;;1.80;;
42586;SDS011;28216;53.362;-6.288;2022-07-24T11:56:56;2.92;;;1.77;;
42586;SDS011;28216;53.362;-6.288;2022-07-24T11:59:26;2.22;;;1.80;;
42586;SDS011;28216;53.362;-6.288;2022-07-24T12:02:03;2.17;;;1.75;;
42586;SDS011;28216;53.362;-6.288;2022-07-24T12:04:31;1.65;;;1.48;;
42586;SDS011;28216;53.362;-6.288;2022-07-24T12:06:56;2.60;;;1.73;;
42586;SDS011;28216;53.362;-6.288;2022-07-24T12:09:22;1.60;;;1.50;;
42586;SDS011;28216;53.362;-6.288;2022-07-24T12:11:47;1.67;;;1.58;;
42586;SDS011;28216;53.362;-6.288;2022-07-24T12:14:14;3.97;;;2.00;;
42586;SDS011;28216;53.362;-6.288;2022-07-24T12:16:41;2.60;;;2.40;;
42586;SDS011;28216;53.362;-6.288;2022-07-24T12:19:11;3.03;;;2.58;;
42586;SDS011;28216;53.362;-6.288;2022-07-24T12:21:37;3.47;;;2.50;;
42586;SDS011;28216;53.362;-6.288;2022-07-24T12:24:03;3.35;;;2.60;;
42586;SDS011;28216;53.362;-6.288;2022-07-24T12:26:30;3.63;;;2.60;;
42586;SDS011;28216;53.362;-6.288;2022-07-24T12:29:08;4.88;;;2.50;;
42586;SDS011;28216;53.362;-6.288;2022-07-24T12:31:34;3.25;;;2.58;;
42586;SDS011;28216;53.362;-6.288;2022-07-24T12:34:00;3.38;;;2.60;;
42586;SDS011;28216;53.362;-6.288;2022-07-24T12:36:26;3.22;;;2.50;;
42586;SDS011;28216;53.362;-6.288;2022-07-24T12:38:53;4.20;;;2.75;;
42586;SDS011;28216;53.362;-6.288;2022-07-24T12:41:20;3.03;;;2.58;;
42586;SDS011;28216;53.362;-6.288;2022-07-24T12:43:48;3.58;;;2.95;;
42586;SDS011;28216;53.362;-6.288;2022-07-24T12:46:16;4.18;;;2.80;;
42586;SDS011;28216;53.362;-6.288;2022-07-24T12:49:02;3.35;;;2.75;;
42586;SDS011;28216;53.362;-6.288;2022-07-24T12:54:32;4.32;;;2.78;;
42586;SDS011;28216;53.362;-6.288;2022-07-24T12:57:06;5.03;;;2.72;;
42586;SDS011;28216;53.362;-6.288;2022-07-24T12:59:35;4.18;;;2.65;;
42586;SDS011;28216;53.362;-6.288;2022-07-24T13:04:43;5.20;;;2.92;;
42586;SDS011;28216;53.362;-6.288;2022-07-24T13:07:13;5.70;;;3.28;;
42586;SDS011;28216;53.362;-6.288;2022-07-24T13:09:40;5.05;;;2.83;;
42586;SDS011;28216;53.362;-6.288;2022-07-24T13:12:06;3.28;;;2.97;;
42586;SDS011;28216;53.362;-6.288;2022-07-24T13:14:33;4.78;;;2.90;;
42586;SDS011;28216;53.362;-6.288;2022-07-24T13:17:03;9.15;;;3.40;;
42586;SDS011;28216;53.362;-6.288;2022-07-24T13:19:29;5.05;;;3.00;;
42586;SDS011;28216;53.362;-6.288;2022-07-24T13:21:54;4.35;;;2.90;;
42586;SDS011;28216;53.362;-6.288;2022-07-24T13:24:20;7.00;;;2.80;;
42586;SDS011;28216;53.362;-6.288;2022-07-24T13:26:45;3.67;;;2.90;;
42586;SDS011;28216;53.362;-6.288;2022-07-24T13:29:11;4.05;;;2.63;;
42586;SDS011;28216;53.362;-6.288;2022-07-24T13:31:37;5.25;;;2.83;;
42586;SDS011;28216;53.362;-6.288;2022-07-24T13:34:03;2.83;;;2.40;;
42586;SDS011;28216;53.362;-6.288;2022-07-24T13:36:29;3.08;;;2.50;;
42586;SDS011;28216;53.362;-6.288;2022-07-24T13:38:56;2.50;;;2.30;;
42586;SDS011;28216;53.362;-6.288;2022-07-24T13:41:22;4.38;;;2.40;;
42586;SDS011;28216;53.362;-6.288;2022-07-24T13:43:48;4.15;;;2.38;;
42586;SDS011;28216;53.362;-6.288;2022-07-24T13:46:14;4.28;;;2.38;;
42586;SDS011;28216;53.362;-6.288;2022-07-24T13:48:40;4.90;;;2.20;;
42586;SDS011;28216;53.362;-6.288;2022-07-24T13:51:06;3.25;;;2.45;;
42586;SDS011;28216;53.362;-6.288;2022-07-24T13:53:31;2.95;;;2.17;;
42586;SDS011;28216;53.362;-6.288;2022-07-24T13:55:57;6.35;;;2.40;;
42586;SDS011;28216;53.362;-6.288;2022-07-24T13:58:22;3.53;;;2.60;;
42586;SDS011;28216;53.362;-6.288;2022-07-24T14:00:48;2.50;;;2.30;;
42586;SDS011;28216;53.362;-6.288;2022-07-24T14:03:13;2.30;;;2.10;;
42586;SDS011;28216;53.362;-6.288;2022-07-24T14:05:40;4.28;;;2.40;;
42586;SDS011;28216;53.362;-6.288;2022-07-24T14:08:05;3.80;;;2.97;;
42586;SDS011;28216;53.362;-6.288;2022-07-24T14:10:31;4.32;;;2.70;;
42586;SDS011;28216;53.362;-6.288;2022-07-24T14:12:57;4.95;;;2.85;;
42586;SDS011;28216;53.362;-6.288;2022-07-24T14:15:22;4.07;;;2.92;;
42586;SDS011;28216;53.362;-6.288;2022-07-24T14:17:48;5.80;;;2.92;;
42586;SDS011;28216;53.362;-6.288;2022-07-24T14:20:14;4.55;;;2.60;;
42586;SDS011;28216;53.362;-6.288;2022-07-24T14:22:40;4.50;;;2.70;;
42586;SDS011;28216;53.362;-6.288;2022-07-24T14:25:07;3.63;;;2.70;;
42586;SDS011;28216;53.362;-6.288;2022-07-24T14:27:33;7.28;;;3.03;;
42586;SDS011;28216;53.362;-6.288;2022-07-24T14:30:00;5.90;;;2.85;;
42586;SDS011;28216;53.362;-6.288;2022-07-24T14:32:26;5.90;;;3.00;;
42586;SDS011;28216;53.362;-6.288;2022-07-24T14:34:52;8.70;;;3.22;;
42586;SDS011;28216;53.362;-6.288;2022-07-24T14:37:20;4.70;;;2.92;;
42586;SDS011;28216;53.362;-6.288;2022-07-24T14:39:46;6.45;;;2.70;;
42586;SDS011;28216;53.362;-6.288;2022-07-24T14:42:11;5.00;;;3.15;;
42586;SDS011;28216;53.362;-6.288;2022-07-24T14:44:37;3.63;;;2.50;;
42586;SDS011;28216;53.362;-6.288;2022-07-24T14:47:02;4.05;;;3.00;;
42586;SDS011;28216;53.362;-6.288;2022-07-24T14:49:31;5.70;;;3.28;;
42586;SDS011;28216;53.362;-6.288;2022-07-24T14:51:57;3.55;;;2.90;;
42586;SDS011;28216;53.362;-6.288;2022-07-24T14:54:24;3.10;;;2.80;;
42586;SDS011;28216;53.362;-6.288;2022-07-24T14:56:50;4.07;;;2.90;;
42586;SDS011;28216;53.362;-6.288;2022-07-24T14:59:15;5.03;;;2.80;;
42586;SDS011;28216;53.362;-6.288;2022-07-24T15:01:41;4.68;;;2.50;;
42586;SDS011;28216;53.362;-6.288;2022-07-24T15:04:06;4.35;;;2.80;;
42586;SDS011;28216;53.362;-6.288;2022-07-24T15:06:32;3.85;;;2.63;;
42586;SDS011;28216;53.362;-6.288;2022-07-24T15:08:58;7.10;;;2.50;;
42586;SDS011;28216;53.362;-6.288;2022-07-24T15:11:24;4.57;;;2.65;;
42586;SDS011;28216;53.362;-6.288;2022-07-24T15:13:53;5.22;;;2.90;;